Time;durP1;ratioP1;P1;durP2;ratioP2;P2;SDS_P1;SDS_P2;PMS_P1;PMS_P2;Temp;Humidity;BMP_temperature;BMP_pressure;BME280_temperature;BME280_humidity;BME280_pressure;Samples;Min_cycle;Max_cycle;Signal;HPM_P1;HPM_P2
2023/08/27 00:01:26;;;;;;;7.40;1.75;;;16.80;99.90;;;;;;4930199;29;20047;-80
2023/08/27 00:03:52;;;;;;;8.68;1.92;;;16.80;99.90;;;;;;4947811;28;20397;-80
2023/08/27 00:06:18;;;;;;;3.67;1.77;;;16.80;99.90;;;;;;4943634;28;20111;-84
2023/08/27 00:08:44;;;;;;;3.67;1.70;;;16.80;99.90;;;;;;4941803;28;20035;-80
2023/08/27 00:11:09;;;;;;;3.22;1.60;;;16.80;99.90;;;;;;4941861;28;20035;-80
2023/08/27 00:13:35;;;;;;;5.85;1.67;;;16.80;99.90;;;;;;4939952;29;20469;-84
2023/08/27 00:16:00;;;;;;;2.58;1.48;;;16.80;99.90;;;;;;4940160;28;20023;-80
2023/08/27 00:18:26;;;;;;;6.53;1.52;;;16.80;99.90;;;;;;4950764;28;20035;-81
2023/08/27 00:20:52;;;;;;;2.88;1.50;;;16.90;99.90;;;;;;4938373;28;20095;-80
2023/08/27 00:23:18;;;;;;;4.20;2.00;;;16.90;99.90;;;;;;4947174;28;20027;-80
2023/08/27 00:25:44;;;;;;;14.25;1.77;;;16.90;99.90;;;;;;4942030;28;20031;-80
2023/08/27 00:28:13;;;;;;;6.50;2.05;;;16.90;99.90;;;;;;4936736;28;20027;-82
2023/08/27 00:30:38;;;;;;;8.15;1.65;;;16.90;99.90;;;;;;4944291;29;20038;-81
2023/08/27 00:33:04;;;;;;;2.58;1.65;;;17.00;99.90;;;;;;4944017;28;20031;-83
2023/08/27 00:35:30;;;;;;;3.40;1.70;;;16.90;99.90;;;;;;4936415;29;20031;-81
2023/08/27 00:37:55;;;;;;;3.90;1.77;;;17.00;99.90;;;;;;4935481;28;20023;-81
2023/08/27 00:40:21;;;;;;;3.60;1.45;;;17.00;99.90;;;;;;4934979;29;20355;-81
2023/08/27 00:42:47;;;;;;;5.10;1.33;;;17.00;99.90;;;;;;4931903;28;20110;-83
2023/08/27 00:45:14;;;;;;;6.57;1.70;;;17.00;99.90;;;;;;4945959;28;20047;-83
2023/08/27 00:47:39;;;;;;;9.70;1.65;;;17.00;99.90;;;;;;4947833;29;20027;-80
2023/08/27 00:50:09;;;;;;;3.65;1.95;;;17.00;99.90;;;;;;4936535;28;20035;-81
2023/08/27 00:52:35;;;;;;;5.03;1.65;;;17.10;99.90;;;;;;4945089;28;20063;-81
2023/08/27 00:55:03;;;;;;;6.57;1.50;;;17.00;99.90;;;;;;4945958;28;20065;-82
2023/08/27 00:57:29;;;;;;;1.88;1.50;;;17.00;99.90;;;;;;4940199;29;20055;-81
2023/08/27 00:59:56;;;;;;;2.53;1.13;;;17.00;99.90;;;;;;4937739;29;20047;-82
2023/08/27 01:02:21;;;;;;;1.38;1.10;;;17.00;99.90;;;;;;4942055;29;20094;-80
2023/08/27 01:04:47;;;;;;;5.63;2.03;;;17.00;99.90;;;;;;4950182;28;20035;-83
2023/08/27 01:07:35;;;;;;;5.72;1.98;;;17.00;99.90;;;;;;4945058;29;20042;-81
2023/08/27 01:10:19;;;;;;;3.03;1.33;;;17.00;99.90;;;;;;4935645;28;20036;-80
2023/08/27 01:13:01;;;;;;;3.15;1.60;;;17.00;99.90;;;;;;4944943;28;20108;-81
2023/08/27 01:15:28;;;;;;;3.35;1.90;;;17.00;99.90;;;;;;4945333;28;20031;-81
2023/08/27 01:17:59;;;;;;;7.80;2.08;;;16.90;99.90;;;;;;4943925;29;20115;-80
2023/08/27 01:20:25;;;;;;;4.93;1.85;;;17.00;99.90;;;;;;4935028;28;20147;-81
2023/08/27 01:22:51;;;;;;;2.78;1.52;;;16.90;99.90;;;;;;4925964;28;20058;-81
2023/08/27 01:25:20;;;;;;;2.08;1.67;;;16.90;99.90;;;;;;4944720;29;20063;-81
2023/08/27 01:27:58;;;;;;;4.93;1.45;;;17.00;99.90;;;;;;4946534;28;20035;-80
2023/08/27 01:30:33;;;;;;;6.50;1.55;;;17.00;99.90;;;;;;4934101;28;20059;-80
2023/08/27 01:33:06;;;;;;;3.60;1.60;;;17.00;99.90;;;;;;4933658;28;20052;-82
2023/08/27 01:35:33;;;;;;;10.43;1.77;;;16.90;99.90;;;;;;4935766;29;20038;-81
2023/08/27 01:37:59;;;;;;;2.95;1.88;;;17.00;99.90;;;;;;4938256;28;20098;-81
2023/08/27 01:40:27;;;;;;;2.92;1.65;;;17.00;99.90;;;;;;4939802;28;20489;-81
2023/08/27 01:42:52;;;;;;;2.08;1.70;;;17.00;99.90;;;;;;4920971;28;20035;-80
2023/08/27 01:45:18;;;;;;;1.83;1.30;;;17.00;99.90;;;;;;4942253;28;20031;-81
2023/08/27 01:47:44;;;;;;;2.38;1.67;;;17.00;99.90;;;;;;4945603;28;20031;-80
2023/08/27 01:50:10;;;;;;;4.20;1.95;;;17.00;99.90;;;;;;4939757;28;20042;-83
2023/08/27 01:52:36;;;;;;;3.17;1.75;;;17.00;99.90;;;;;;4940903;28;20110;-80
2023/08/27 01:55:03;;;;;;;2.70;1.40;;;17.00;99.90;;;;;;4950043;28;20122;-81
2023/08/27 01:57:29;;;;;;;1.52;0.93;;;17.00;99.90;;;;;;4945153;28;20027;-80
2023/08/27 01:59:54;;;;;;;3.30;1.40;;;17.00;99.90;;;;;;4947626;29;20087;-81
2023/08/27 02:02:20;;;;;;;4.65;1.75;;;17.00;99.90;;;;;;4932520;28;20047;-81
2023/08/27 02:04:46;;;;;;;5.68;1.45;;;17.00;99.90;;;;;;4939306;28;20441;-81
2023/08/27 02:07:12;;;;;;;5.07;1.75;;;17.00;99.90;;;;;;4939210;28;20027;-80
2023/08/27 02:09:37;;;;;;;8.30;1.90;;;16.90;99.90;;;;;;4941422;28;20035;-81
2023/08/27 02:12:04;;;;;;;5.05;1.20;;;16.90;99.90;;;;;;4939677;28;20027;-81
2023/08/27 02:14:30;;;;;;;7.32;1.92;;;16.90;99.90;;;;;;4951170;28;20042;-81
2023/08/27 02:16:55;;;;;;;3.80;1.20;;;16.90;99.90;;;;;;4945516;28;20019;-81
2023/08/27 02:19:21;;;;;;;5.65;1.92;;;17.00;99.90;;;;;;4938415;28;20027;-80
2023/08/27 02:21:47;;;;;;;4.00;1.60;;;17.00;99.90;;;;;;4945810;29;20053;-80
2023/08/27 02:24:13;;;;;;;3.35;1.90;;;17.00;99.90;;;;;;4943654;28;20118;-81
2023/08/27 02:26:38;;;;;;;2.00;1.75;;;17.00;99.90;;;;;;4939463;28;20024;-81
2023/08/27 02:29:04;;;;;;;10.73;1.70;;;17.00;99.90;;;;;;4940046;28;20031;-80
2023/08/27 02:31:29;;;;;;;7.00;1.63;;;17.00;99.90;;;;;;4936149;28;20064;-80
2023/08/27 02:33:55;;;;;;;2.40;1.17;;;17.00;99.90;;;;;;4940631;28;20068;-81
2023/08/27 02:36:21;;;;;;;3.83;1.60;;;17.00;99.90;;;;;;4940845;29;20027;-80
2023/08/27 02:38:47;;;;;;;5.97;1.55;;;16.90;99.90;;;;;;4926383;29;20040;-80
2023/08/27 02:41:13;;;;;;;8.27;1.92;;;17.00;99.90;;;;;;4930715;29;20115;-81
2023/08/27 02:43:39;;;;;;;3.53;1.55;;;17.00;99.90;;;;;;4944138;28;20023;-80
2023/08/27 02:46:04;;;;;;;7.93;1.67;;;17.00;99.90;;;;;;4943623;28;20023;-80
2023/08/27 02:48:30;;;;;;;3.03;1.40;;;17.00;99.90;;;;;;4944031;28;20028;-81
2023/08/27 02:50:56;;;;;;;3.15;1.67;;;17.10;99.90;;;;;;4942983;28;20095;-81
2023/08/27 02:53:21;;;;;;;3.50;1.63;;;17.10;99.90;;;;;;4947452;28;20023;-81
2023/08/27 02:55:51;;;;;;;2.08;1.42;;;17.10;99.90;;;;;;4939326;29;20045;-84
2023/08/27 02:58:16;;;;;;;2.08;1.50;;;17.10;99.90;;;;;;4943752;29;20022;-82
2023/08/27 03:00:42;;;;;;;3.10;1.83;;;17.10;99.90;;;;;;4942768;28;20031;-81
2023/08/27 03:03:10;;;;;;;4.78;1.58;;;17.10;99.90;;;;;;4948484;28;20031;-83
2023/08/27 03:05:36;;;;;;;3.75;1.27;;;17.10;99.90;;;;;;4938341;28;20062;-81
2023/08/27 03:08:02;;;;;;;4.20;1.88;;;17.10;99.90;;;;;;4946980;28;20655;-83
2023/08/27 03:10:27;;;;;;;8.05;1.65;;;17.10;99.90;;;;;;4939610;29;20508;-82
2023/08/27 03:12:53;;;;;;;2.70;1.60;;;17.10;99.90;;;;;;4948075;28;20117;-82
2023/08/27 03:15:19;;;;;;;3.85;1.63;;;17.10;99.90;;;;;;4943874;28;20039;-81
2023/08/27 03:17:44;;;;;;;4.93;1.65;;;17.10;99.90;;;;;;4946747;29;20058;-81
2023/08/27 03:20:10;;;;;;;9.85;1.70;;;17.10;99.90;;;;;;4932075;29;20031;-82
2023/08/27 03:22:36;;;;;;;2.70;1.40;;;17.10;99.90;;;;;;4945272;28;20029;-80
2023/08/27 03:25:01;;;;;;;5.07;1.60;;;17.10;99.90;;;;;;4942636;28;20059;-84
2023/08/27 03:27:29;;;;;;;6.97;1.95;;;17.10;99.90;;;;;;4944535;28;20035;-83
2023/08/27 03:29:55;;;;;;;6.97;2.13;;;17.10;99.90;;;;;;4942465;29;20082;-83
2023/08/27 03:32:20;;;;;;;2.70;2.00;;;17.10;99.90;;;;;;4933237;29;20032;-81
2023/08/27 03:34:46;;;;;;;3.88;1.60;;;17.20;99.90;;;;;;4941400;28;20034;-81
2023/08/27 03:37:12;;;;;;;4.72;2.42;;;17.10;99.90;;;;;;4946677;28;20034;-83
2023/08/27 03:39:37;;;;;;;2.83;1.90;;;17.10;99.90;;;;;;4947474;28;20026;-82
2023/08/27 03:42:03;;;;;;;4.70;1.70;;;17.10;99.90;;;;;;4945575;28;20043;-83
2023/08/27 03:44:29;;;;;;;5.50;1.70;;;17.10;99.90;;;;;;4942760;28;20027;-82
2023/08/27 03:46:54;;;;;;;9.93;1.50;;;17.10;99.90;;;;;;4943026;28;20012;-83
2023/08/27 03:49:20;;;;;;;4.47;1.30;;;17.00;99.90;;;;;;4940278;29;20111;-82
2023/08/27 03:51:46;;;;;;;3.33;1.52;;;17.10;99.90;;;;;;4946224;28;20058;-82
2023/08/27 03:54:11;;;;;;;9.95;1.58;;;17.10;99.90;;;;;;4943885;28;20038;-82
2023/08/27 03:56:37;;;;;;;3.03;1.67;;;17.10;99.90;;;;;;4947512;28;20035;-83
2023/08/27 03:59:05;;;;;;;5.70;2.00;;;17.00;99.90;;;;;;4945765;28;20460;-85
2023/08/27 04:01:31;;;;;;;10.00;1.90;;;17.00;99.90;;;;;;4935434;28;20055;-81
2023/08/27 04:03:57;;;;;;;2.05;1.52;;;17.00;99.90;;;;;;4936444;28;20059;-82
2023/08/27 04:06:22;;;;;;;4.43;1.88;;;17.00;99.90;;;;;;4937592;29;20114;-82
2023/08/27 04:08:49;;;;;;;4.55;1.48;;;16.90;99.90;;;;;;4942091;28;20532;-85
2023/08/27 04:11:15;;;;;;;7.95;1.73;;;16.90;99.90;;;;;;4938542;28;20498;-82
2023/08/27 04:13:41;;;;;;;7.00;1.67;;;17.00;99.90;;;;;;4941416;28;20032;-80
2023/08/27 04:16:10;;;;;;;8.50;2.05;;;16.90;99.90;;;;;;4948573;29;20381;-80
2023/08/27 04:18:36;;;;;;;5.43;1.88;;;16.90;99.90;;;;;;4947505;28;20194;-81
2023/08/27 04:21:02;;;;;;;4.55;1.45;;;16.90;99.90;;;;;;4932978;28;20138;-82
2023/08/27 04:23:28;;;;;;;4.32;1.83;;;16.90;99.90;;;;;;4929505;28;20027;-85
2023/08/27 04:25:54;;;;;;;3.13;1.70;;;16.90;99.90;;;;;;4949781;28;20065;-82
2023/08/27 04:28:21;;;;;;;12.32;1.98;;;16.90;99.90;;;;;;4936834;28;20028;-82
2023/08/27 04:30:50;;;;;;;5.72;1.90;;;16.80;99.90;;;;;;4936380;28;20047;-82
2023/08/27 04:33:17;;;;;;;8.32;1.65;;;16.90;99.90;;;;;;4936583;29;20023;-82
2023/08/27 04:35:44;;;;;;;14.23;2.28;;;16.90;99.90;;;;;;4939214;28;20030;-83
2023/08/27 04:38:13;;;;;;;2.92;1.45;;;16.90;99.90;;;;;;4946441;28;20038;-85
2023/08/27 04:40:39;;;;;;;8.23;1.58;;;16.90;99.90;;;;;;4939644;28;20043;-82
2023/08/27 04:43:04;;;;;;;5.28;2.13;;;16.90;99.90;;;;;;4933178;28;20110;-82
2023/08/27 04:45:30;;;;;;;14.95;1.90;;;16.80;99.90;;;;;;4947436;28;20468;-82
2023/08/27 04:47:56;;;;;;;4.43;1.48;;;16.80;99.90;;;;;;4944451;28;20035;-82
2023/08/27 04:50:21;;;;;;;2.90;1.40;;;16.80;99.90;;;;;;4945245;29;20080;-82
2023/08/27 04:52:47;;;;;;;4.35;1.75;;;16.80;99.90;;;;;;4943937;29;20477;-82
2023/08/27 04:55:12;;;;;;;2.63;1.63;;;16.80;99.90;;;;;;4945612;29;20038;-82
2023/08/27 04:57:38;;;;;;;6.70;1.70;;;16.80;99.90;;;;;;4937194;28;20032;-81
2023/08/27 05:00:13;;;;;;;4.13;1.17;;;16.80;99.90;;;;;;4942253;29;20114;-82
2023/08/27 05:02:39;;;;;;;3.38;1.58;;;16.80;99.90;;;;;;4941513;29;20042;-81
2023/08/27 05:05:05;;;;;;;4.25;1.45;;;16.80;99.90;;;;;;4952891;28;20035;-82
2023/08/27 05:07:32;;;;;;;17.30;1.90;;;16.90;99.90;;;;;;4946590;28;20039;-85
2023/08/27 05:10:03;;;;;;;8.13;2.38;;;16.90;99.90;;;;;;4938724;29;20059;-82
2023/08/27 05:12:28;;;;;;;9.18;1.90;;;16.90;99.90;;;;;;4946516;29;20098;-82
2023/08/27 05:14:54;;;;;;;4.47;1.48;;;16.90;99.90;;;;;;4943212;29;20111;-82
2023/08/27 16:13:10;;;;;;;8.25;1.95;;;18.90;99.90;;;;;;4965359;23;20478;-84
2023/08/27 16:15:36;;;;;;;2.33;1.50;;;18.80;99.90;;;;;;4967130;28;20392;-82
2023/08/27 16:18:01;;;;;;;8.73;1.20;;;18.70;99.90;;;;;;4963331;28;20113;-83
2023/08/27 16:20:27;;;;;;;2.35;1.60;;;18.60;99.90;;;;;;4963069;28;20031;-81
2023/08/27 16:22:52;;;;;;;2.50;1.60;;;18.30;99.90;;;;;;4966258;28;20061;-84
2023/08/27 16:25:19;;;;;;;2.60;1.23;;;18.10;99.90;;;;;;4964849;28;20023;-85
2023/08/27 16:27:44;;;;;;;3.97;1.77;;;18.10;99.90;;;;;;4967894;28;20039;-81
2023/08/27 16:30:10;;;;;;;2.17;1.30;;;18.00;99.90;;;;;;4963391;28;20057;-83
2023/08/27 16:32:42;;;;;;;7.38;3.15;;;17.80;99.90;;;;;;4964010;28;20559;-85
2023/08/27 16:35:08;;;;;;;2.92;1.77;;;17.80;99.90;;;;;;4968965;28;20470;-81
2023/08/27 16:37:34;;;;;;;2.33;1.80;;;17.70;99.90;;;;;;4966626;28;20047;-87
2023/08/27 16:40:00;;;;;;;2.80;1.73;;;17.70;99.90;;;;;;4967113;28;20035;-86
2023/08/27 16:42:25;;;;;;;3.42;1.90;;;17.60;99.90;;;;;;4968040;28;20065;-80
2023/08/27 16:44:51;;;;;;;4.20;1.92;;;17.60;99.90;;;;;;4965664;28;20388;-80
2023/08/27 16:47:16;;;;;;;4.60;2.05;;;17.50;99.90;;;;;;4968573;28;20034;-81
2023/08/27 16:49:45;;;;;;;5.13;1.90;;;17.40;99.90;;;;;;4965834;28;20042;-82
2023/08/27 16:52:10;;;;;;;3.33;1.67;;;17.30;99.90;;;;;;4965593;28;20027;-80
2023/08/27 16:54:49;;;;;;;6.80;1.52;;;17.40;99.90;;;;;;4967006;28;20101;-82
2023/08/27 16:57:14;;;;;;;2.55;1.50;;;17.40;99.90;;;;;;4966004;28;20031;-84
2023/08/27 16:59:40;;;;;;;5.95;1.60;;;17.30;99.90;;;;;;4957647;28;20018;-84
2023/08/27 17:02:07;;;;;;;6.68;1.45;;;17.30;99.90;;;;;;4962097;28;20102;-84
2023/08/27 17:04:39;;;;;;;3.45;1.88;;;17.30;99.90;;;;;;4959856;28;20101;-82
2023/08/27 17:07:04;;;;;;;3.40;1.50;;;17.30;99.90;;;;;;4964254;28;20027;-83
2023/08/27 17:09:30;;;;;;;8.55;1.77;;;17.30;99.90;;;;;;4963431;28;20033;-83
2023/08/27 17:11:56;;;;;;;2.88;1.42;;;17.30;99.90;;;;;;4962240;28;20039;-83
2023/08/27 17:14:22;;;;;;;3.10;1.63;;;17.30;99.90;;;;;;4969008;28;20382;-81
2023/08/27 17:16:48;;;;;;;4.57;1.80;;;17.30;99.90;;;;;;4966969;28;20027;-81
2023/08/27 17:19:13;;;;;;;3.50;1.80;;;17.30;99.90;;;;;;4964326;28;20431;-83
2023/08/27 17:21:51;;;;;;;2.28;1.30;;;17.30;99.90;;;;;;4962069;28;20046;-80
2023/08/27 17:24:17;;;;;;;1.70;1.60;;;17.30;99.90;;;;;;4964550;28;20507;-83
2023/08/27 17:26:42;;;;;;;3.97;1.70;;;17.30;99.90;;;;;;4962909;28;20031;-83
2023/08/27 17:29:08;;;;;;;6.20;1.60;;;17.30;99.90;;;;;;4961424;28;20026;-81
2023/08/27 17:31:39;;;;;;;3.00;1.63;;;17.20;99.90;;;;;;4960696;28;20035;-81
2023/08/27 17:34:05;;;;;;;3.28;1.70;;;17.20;99.90;;;;;;4958178;28;20812;-83
2023/08/27 17:36:35;;;;;;;5.18;1.75;;;17.30;99.90;;;;;;4958927;28;20023;-81
2023/08/27 17:39:00;;;;;;;3.60;1.60;;;17.20;99.90;;;;;;4964612;28;20050;-85
2023/08/27 17:41:31;;;;;;;2.60;1.90;;;17.30;99.90;;;;;;4958372;28;20149;-80
2023/08/27 17:43:57;;;;;;;4.65;1.75;;;17.30;99.90;;;;;;4956941;28;20061;-85
2023/08/27 17:46:24;;;;;;;2.95;1.50;;;17.20;99.90;;;;;;4967171;28;20109;-81
2023/08/27 17:48:54;;;;;;;2.05;1.52;;;17.30;99.90;;;;;;4962430;28;20501;-81
2023/08/27 17:51:19;;;;;;;3.17;1.40;;;17.30;99.90;;;;;;4945556;28;20489;-82
2023/08/27 17:53:51;;;;;;;2.17;1.40;;;17.30;99.90;;;;;;4962153;28;20045;-81
2023/08/27 17:56:19;;;;;;;3.97;1.70;;;17.40;99.90;;;;;;4970018;28;20022;-82
2023/08/27 17:58:45;;;;;;;4.40;1.48;;;17.30;99.90;;;;;;4959102;28;20063;-94
2023/08/27 18:01:11;;;;;;;6.63;1.58;;;17.30;99.90;;;;;;4952620;28;20494;-85
2023/08/27 18:03:36;;;;;;;3.35;1.60;;;17.40;99.90;;;;;;4956975;28;20026;-84
2023/08/27 18:06:04;;;;;;;4.05;2.00;;;17.40;99.90;;;;;;4961955;28;20042;-81
2023/08/27 18:08:30;;;;;;;3.78;1.42;;;17.40;99.90;;;;;;4961818;28;20071;-84
2023/08/27 18:10:55;;;;;;;7.20;1.80;;;17.30;99.90;;;;;;4958372;28;20633;-80
2023/08/27 18:13:24;;;;;;;6.18;1.55;;;17.40;99.90;;;;;;4961955;28;20082;-80
2023/08/27 18:15:50;;;;;;;2.40;1.40;;;17.40;99.90;;;;;;4962524;28;20488;-81
2023/08/27 18:18:23;;;;;;;3.75;1.70;;;17.40;99.90;;;;;;4963271;28;20117;-82
2023/08/27 18:20:53;;;;;;;2.10;1.50;;;17.40;99.90;;;;;;4956287;28;20035;-89
2023/08/27 18:23:19;;;;;;;2.97;1.40;;;17.40;99.90;;;;;;4958596;28;20067;-83
2023/08/27 18:25:48;;;;;;;3.15;1.70;;;17.40;99.90;;;;;;4951981;28;20061;-84
2023/08/27 18:28:13;;;;;;;3.90;1.73;;;17.40;99.90;;;;;;4949790;28;20053;-82
2023/08/27 18:30:39;;;;;;;1.42;1.17;;;17.40;99.90;;;;;;4963568;28;20026;-82
2023/08/27 18:33:06;;;;;;;5.78;1.80;;;17.40;99.90;;;;;;4956982;28;20065;-83
2023/08/27 18:35:31;;;;;;;4.97;1.80;;;17.40;99.90;;;;;;4955609;28;20148;-81
2023/08/27 18:38:00;;;;;;;3.45;1.42;;;17.40;99.90;;;;;;4959612;28;20071;-82
2023/08/27 18:40:26;;;;;;;3.22;1.67;;;17.40;99.90;;;;;;4962648;28;20024;-79
2023/08/27 18:42:55;;;;;;;3.00;1.48;;;17.40;99.90;;;;;;4967171;28;20046;-82
2023/08/27 18:45:23;;;;;;;2.55;1.45;;;17.40;99.90;;;;;;4960550;28;20114;-82
2023/08/27 18:47:49;;;;;;;2.55;1.38;;;17.40;99.90;;;;;;4942051;28;20039;-81
2023/08/27 18:50:17;;;;;;;6.85;1.52;;;17.40;99.90;;;;;;4961091;28;20109;-81
2023/08/27 18:52:47;;;;;;;4.75;2.03;;;17.40;99.90;;;;;;4956327;28;20046;-82
2023/08/27 18:55:16;;;;;;;5.13;1.70;;;17.30;99.90;;;;;;4960417;28;20078;-84
2023/08/27 18:57:42;;;;;;;2.90;1.65;;;17.30;99.90;;;;;;4961571;28;20345;-80
2023/08/27 19:00:12;;;;;;;6.20;1.88;;;17.30;99.90;;;;;;4954548;28;20109;-79
2023/08/27 19:02:40;;;;;;;2.55;1.67;;;17.30;99.90;;;;;;4957069;28;20488;-82
2023/08/27 19:05:06;;;;;;;2.45;1.60;;;17.30;99.90;;;;;;4957572;28;20042;-81
2023/08/27 19:07:31;;;;;;;2.47;1.60;;;17.30;99.90;;;;;;4956949;28;20050;-81
2023/08/27 19:10:00;;;;;;;1.90;1.35;;;17.30;99.90;;;;;;4963590;28;20492;-81
2023/08/27 19:12:29;;;;;;;3.42;1.50;;;17.30;99.90;;;;;;4954489;28;20212;-83
2023/08/27 19:14:58;;;;;;;2.92;1.63;;;17.20;99.90;;;;;;4959694;28;20034;-82
2023/08/27 19:17:24;;;;;;;2.45;1.40;;;17.20;99.90;;;;;;4949286;28;20054;-82
2023/08/27 19:19:53;;;;;;;2.50;1.30;;;17.20;99.90;;;;;;4955620;28;20059;-79
2023/08/27 19:22:22;;;;;;;2.50;1.60;;;17.30;99.90;;;;;;4940956;28;20050;-81
2023/08/27 19:24:47;;;;;;;4.03;1.70;;;17.20;99.90;;;;;;4966125;28;20435;-83
2023/08/27 19:27:13;;;;;;;13.48;2.63;;;17.20;99.90;;;;;;4962489;28;20430;-83
2023/08/27 19:29:39;;;;;;;2.60;1.48;;;17.20;99.90;;;;;;4959972;28;20024;-82
2023/08/27 19:32:10;;;;;;;3.80;1.45;;;17.20;99.90;;;;;;4964085;28;20030;-85
2023/08/27 19:34:42;;;;;;;5.10;1.30;;;17.20;99.90;;;;;;4957392;28;20039;-83
2023/08/27 19:37:08;;;;;;;2.80;1.50;;;17.20;99.90;;;;;;4958777;28;20027;-82
2023/08/27 19:39:41;;;;;;;1.92;1.67;;;17.10;99.90;;;;;;4957117;28;20448;-85
2023/08/27 19:42:06;;;;;;;2.03;1.63;;;17.10;99.90;;;;;;4958191;28;20058;-82
2023/08/27 19:44:32;;;;;;;2.17;1.60;;;17.10;99.90;;;;;;4967170;28;20021;-83
2023/08/27 19:47:00;;;;;;;1.95;1.42;;;17.10;99.90;;;;;;4964840;28;20027;-81
2023/08/27 19:49:26;;;;;;;3.63;1.77;;;17.10;99.90;;;;;;4966359;28;20035;-84
2023/08/27 19:51:51;;;;;;;4.47;1.15;;;17.10;99.90;;;;;;4962561;28;20039;-81
2023/08/27 19:54:17;;;;;;;3.38;2.13;;;17.10;99.90;;;;;;4963117;28;20082;-83
2023/08/27 19:56:43;;;;;;;8.57;1.55;;;17.10;99.90;;;;;;4962989;28;20031;-84
2023/08/27 19:59:16;;;;;;;2.63;1.33;;;17.10;99.90;;;;;;4964473;28;20027;-84
2023/08/27 20:01:42;;;;;;;5.47;1.67;;;17.10;99.90;;;;;;4955313;28;20515;-82
2023/08/27 20:04:07;;;;;;;3.55;1.17;;;17.00;99.90;;;;;;4959824;28;20035;-84
2023/08/27 20:06:33;;;;;;;3.03;1.40;;;16.90;99.90;;;;;;4962199;28;20031;-82
2023/08/27 20:09:02;;;;;;;8.43;1.52;;;16.90;99.90;;;;;;4963506;28;20058;-82
2023/08/27 20:11:27;;;;;;;2.08;1.60;;;16.90;99.90;;;;;;4953641;28;20405;-82
2023/08/27 20:13:53;;;;;;;1.35;1.20;;;16.90;99.90;;;;;;4961741;28;20492;-82
2023/08/27 20:16:19;;;;;;;2.97;1.80;;;16.90;99.90;;;;;;4958648;28;20217;-81
2023/08/27 20:18:50;;;;;;;2.42;1.65;;;16.90;99.90;;;;;;4963033;28;20022;-82
2023/08/27 20:21:16;;;;;;;1.75;1.50;;;16.90;99.90;;;;;;4961043;28;20050;-83
2023/08/27 20:23:47;;;;;;;1.30;1.20;;;16.90;99.90;;;;;;4953610;28;20385;-83
2023/08/27 20:26:13;;;;;;;1.83;1.42;;;16.80;99.90;;;;;;4969040;28;20037;-83
2023/08/27 20:28:39;;;;;;;2.50;1.10;;;16.80;99.90;;;;;;4964985;28;20165;-82
2023/08/27 20:31:04;;;;;;;2.20;1.70;;;16.80;99.90;;;;;;4962203;28;20113;-82
2023/08/27 20:33:30;;;;;;;3.53;1.58;;;16.70;99.90;;;;;;4954553;28;20086;-83
2023/08/27 20:35:55;;;;;;;1.27;1.02;;;16.70;99.90;;;;;;4964183;28;20035;-83
2023/08/27 20:38:21;;;;;;;2.50;1.60;;;16.70;99.90;;;;;;4961736;28;20352;-85
2023/08/27 20:40:48;;;;;;;2.58;1.20;;;16.70;99.90;;;;;;4957449;28;20037;-83
2023/08/27 20:43:14;;;;;;;3.17;1.27;;;16.70;99.90;;;;;;4958856;28;20370;-81
2023/08/27 20:45:53;;;;;;;5.63;1.30;;;16.60;99.90;;;;;;4961691;28;20030;-83
2023/08/27 20:48:19;;;;;;;2.38;1.40;;;16.60;99.90;;;;;;4966858;28;20094;-85
2023/08/27 20:50:57;;;;;;;4.05;1.60;;;16.50;99.90;;;;;;4963667;28;20030;-82
2023/08/27 20:53:26;;;;;;;1.40;1.30;;;16.50;99.90;;;;;;4939290;28;20472;-81
2023/08/27 20:55:58;;;;;;;2.13;1.52;;;16.40;99.90;;;;;;4959772;28;20027;-82
2023/08/27 20:58:26;;;;;;;1.17;1.08;;;16.40;99.90;;;;;;4946418;28;20093;-83
2023/08/27 21:00:52;;;;;;;2.28;1.50;;;16.40;99.90;;;;;;4965661;28;20030;-82
2023/08/27 21:03:17;;;;;;;9.80;1.70;;;16.40;99.90;;;;;;4965661;28;20404;-81
2023/08/27 21:05:46;;;;;;;1.40;1.15;;;16.40;99.90;;;;;;4950150;28;20035;-83
2023/08/27 21:08:12;;;;;;;1.25;1.05;;;16.40;99.90;;;;;;4959090;28;20069;-84
2023/08/27 21:10:37;;;;;;;1.23;1.13;;;16.30;99.90;;;;;;4960481;28;20101;-83
2023/08/27 21:13:03;;;;;;;2.80;1.30;;;16.30;99.90;;;;;;4964024;28;20362;-82
2023/08/27 21:15:29;;;;;;;1.17;1.08;;;16.30;99.90;;;;;;4964730;28;20039;-82
2023/08/27 21:18:01;;;;;;;2.25;1.30;;;16.40;99.90;;;;;;4958180;28;20086;-82
2023/08/27 21:20:27;;;;;;;2.80;1.58;;;16.30;99.90;;;;;;4963525;28;20029;-81
2023/08/27 21:22:53;;;;;;;1.35;1.08;;;16.30;99.90;;;;;;4956074;28;20038;-82
2023/08/27 21:25:18;;;;;;;4.22;1.30;;;16.30;99.90;;;;;;4960693;28;20059;-82
2023/08/27 21:27:59;;;;;;;2.35;1.10;;;16.30;99.90;;;;;;4947843;28;20366;-84
2023/08/27 21:30:25;;;;;;;4.70;1.00;;;16.20;99.90;;;;;;4963367;28;20034;-85
2023/08/27 21:32:50;;;;;;;1.38;0.93;;;16.40;99.90;;;;;;4962512;28;20043;-83
2023/08/27 21:35:16;;;;;;;5.57;1.27;;;16.40;99.90;;;;;;4962276;28;20023;-81
2023/08/27 21:37:42;;;;;;;1.85;1.10;;;16.40;99.90;;;;;;4949118;28;20024;-82
2023/08/27 21:40:08;;;;;;;1.38;0.98;;;16.40;99.90;;;;;;4958858;28;20086;-80
2023/08/27 21:42:37;;;;;;;1.42;0.90;;;16.40;99.90;;;;;;4963105;28;20046;-81
2023/08/27 21:45:06;;;;;;;3.50;1.20;;;16.40;99.90;;;;;;4961866;28;20039;-83
2023/08/27 21:47:31;;;;;;;2.38;1.15;;;16.40;99.90;;;;;;4966437;28;20081;-81
2023/08/27 21:50:10;;;;;;;5.05;0.85;;;16.30;99.90;;;;;;4962976;28;20035;-81
2023/08/27 21:52:35;;;;;;;2.03;0.85;;;16.30;99.90;;;;;;4956521;28;20041;-80
2023/08/27 21:55:05;;;;;;;1.77;1.05;;;16.20;99.90;;;;;;4946490;28;20027;-81
2023/08/27 21:57:30;;;;;;;8.00;1.35;;;16.20;99.90;;;;;;4962402;28;20075;-81
2023/08/27 21:59:56;;;;;;;3.28;1.00;;;16.20;99.90;;;;;;4966501;28;20062;-82
2023/08/27 22:02:22;;;;;;;2.40;1.00;;;16.10;99.90;;;;;;4963351;28;20113;-83
2023/08/27 22:04:50;;;;;;;2.75;1.00;;;16.10;99.90;;;;;;4954985;28;20054;-83
2023/08/27 22:07:16;;;;;;;1.98;1.08;;;16.10;99.90;;;;;;4961639;28;20031;-82
2023/08/27 22:09:42;;;;;;;4.18;0.80;;;16.00;99.90;;;;;;4945384;28;20061;-80
2023/08/27 22:12:08;;;;;;;2.92;0.90;;;16.00;99.90;;;;;;4966362;28;20035;-80
2023/08/27 22:14:36;;;;;;;5.38;1.15;;;15.90;99.90;;;;;;4963677;28;20517;-81
2023/08/27 22:17:03;;;;;;;4.60;1.40;;;15.90;99.90;;;;;;4959380;28;20039;-82
2023/08/27 22:19:29;;;;;;;4.70;1.05;;;15.80;99.90;;;;;;4961787;28;20113;-81
2023/08/27 22:22:00;;;;;;;2.17;1.10;;;15.80;99.90;;;;;;4961634;28;20477;-81
2023/08/27 22:24:26;;;;;;;2.63;1.27;;;15.80;99.90;;;;;;4955052;28;20061;-82
2023/08/27 22:26:51;;;;;;;3.75;1.10;;;15.80;99.90;;;;;;4954751;28;20054;-81
2023/08/27 22:29:17;;;;;;;3.40;0.93;;;15.70;99.90;;;;;;4960254;28;20035;-83
2023/08/27 22:31:42;;;;;;;3.10;0.75;;;15.60;99.90;;;;;;4959096;28;20074;-81
2023/08/27 22:34:08;;;;;;;3.72;0.70;;;15.60;99.90;;;;;;4964108;28;20078;-81
2023/08/27 22:36:34;;;;;;;2.45;1.20;;;15.60;99.90;;;;;;4963011;28;20027;-81
2023/08/27 22:39:02;;;;;;;1.13;1.08;;;15.60;99.90;;;;;;4958761;28;20070;-84
2023/08/27 22:41:28;;;;;;;3.78;1.27;;;15.50;99.90;;;;;;4960146;28;20042;-81
2023/08/27 22:44:03;;;;;;;3.80;1.15;;;15.50;99.90;;;;;;4961069;28;20030;-80
2023/08/27 22:46:29;;;;;;;2.92;0.90;;;15.50;99.90;;;;;;4955197;28;20113;-81
2023/08/27 22:48:55;;;;;;;4.18;1.10;;;15.60;99.90;;;;;;4953161;28;20110;-84
2023/08/27 22:51:20;;;;;;;4.50;0.95;;;15.40;99.90;;;;;;4956017;28;20039;-80
2023/08/27 22:53:46;;;;;;;4.15;1.08;;;15.40;99.90;;;;;;4963104;28;20041;-81
2023/08/27 22:56:11;;;;;;;1.88;1.15;;;15.40;99.90;;;;;;4947856;28;20118;-81
2023/08/27 22:58:37;;;;;;;2.60;1.05;;;15.30;99.90;;;;;;4961318;28;20489;-81
2023/08/27 23:01:06;;;;;;;3.97;1.00;;;15.30;99.90;;;;;;4959784;28;20387;-81
2023/08/27 23:03:31;;;;;;;1.58;0.90;;;15.30;99.90;;;;;;4962842;28;20554;-81
2023/08/27 23:06:05;;;;;;;2.60;1.38;;;15.30;99.90;;;;;;4960942;28;20027;-84
2023/08/27 23:08:31;;;;;;;3.00;0.80;;;15.30;99.90;;;;;;4953355;28;20077;-83
2023/08/27 23:10:57;;;;;;;1.58;0.90;;;15.20;99.90;;;;;;4961664;28;20380;-80
2023/08/27 23:13:24;;;;;;;3.03;1.00;;;15.20;99.90;;;;;;4959719;28;20046;-81
2023/08/27 23:16:01;;;;;;;6.38;2.08;;;15.20;99.90;;;;;;4960814;28;20035;-81
2023/08/27 23:18:27;;;;;;;3.60;1.23;;;15.10;99.90;;;;;;4961283;28;20034;-81
2023/08/27 23:20:53;;;;;;;1.50;0.90;;;15.10;99.90;;;;;;4955287;28;20023;-81
2023/08/27 23:23:18;;;;;;;3.33;1.00;;;15.10;99.90;;;;;;4965303;28;20031;-82
2023/08/27 23:25:56;;;;;;;3.08;1.23;;;15.10;99.90;;;;;;4951545;28;20034;-81
2023/08/27 23:28:21;;;;;;;3.97;1.15;;;15.10;99.90;;;;;;4946609;28;20027;-79
2023/08/27 23:30:47;;;;;;;8.13;1.20;;;15.10;99.90;;;;;;4960954;28;20592;-82
2023/08/27 23:33:12;;;;;;;2.10;1.00;;;15.10;99.90;;;;;;4962548;28;20454;-79
2023/08/27 23:35:38;;;;;;;3.47;1.10;;;15.10;99.90;;;;;;4961377;28;20059;-80
2023/08/27 23:38:04;;;;;;;2.30;1.30;;;15.00;99.90;;;;;;4965072;28;20023;-83
2023/08/27 23:40:29;;;;;;;2.90;1.17;;;15.10;99.90;;;;;;4964501;28;20036;-82